Time;durP1;ratioP1;P1;durP2;ratioP2;P2;SDS_P1;SDS_P2;PMS_P1;PMS_P2;Temp;Humidity;BMP_temperature;BMP_pressure;BME280_temperature;BME280_humidity;BME280_pressure;Samples;Min_cycle;Max_cycle;Signal;HPM_P1;HPM_P2
2022/04/19 00:01:18;;;;;;;9.15;5.57;;;;;;;7.70;54.23;101384.41;5012022;28;20042;-71
2022/04/19 00:03:45;;;;;;;7.32;5.18;;;;;;;7.70;54.30;101384.41;5006632;28;20055;-69
2022/04/19 00:06:12;;;;;;;7.47;5.53;;;;;;;7.69;54.15;101380.91;4999715;28;20426;-70
2022/04/19 00:08:39;;;;;;;7.75;5.90;;;;;;;7.68;54.14;101378.31;5004837;28;20046;-70
2022/04/19 00:11:07;;;;;;;9.70;6.18;;;;;;;7.64;54.02;101381.81;5007902;28;20039;-69
2022/04/19 00:13:34;;;;;;;7.57;5.57;;;;;;;7.61;54.15;101375.75;5007395;28;20110;-70
2022/04/19 00:16:02;;;;;;;8.88;5.38;;;;;;;7.61;54.07;101378.38;5004989;28;20035;-71
2022/04/19 00:18:29;;;;;;;7.15;5.45;;;;;;;7.65;54.11;101379.22;5008925;28;20085;-70
2022/04/19 00:20:56;;;;;;;7.32;5.15;;;;;;;7.71;54.00;101378.28;5003077;28;20563;-67
2022/04/19 00:23:23;;;;;;;7.80;5.30;;;;;;;7.76;53.90;101377.34;5011291;28;20046;-68
2022/04/19 00:25:52;;;;;;;10.75;5.75;;;;;;;7.81;53.98;101379.03;5011194;28;20492;-68
2022/04/19 00:28:21;;;;;;;9.93;5.20;;;;;;;7.80;53.70;101378.19;5010254;28;20125;-69
2022/04/19 00:30:57;;;;;;;8.05;4.97;;;;;;;7.78;53.56;101372.94;4997521;28;20078;-71
2022/04/19 00:33:26;;;;;;;8.70;5.68;;;;;;;7.75;53.66;101366.84;5003389;28;20054;-71
2022/04/19 00:35:54;;;;;;;7.97;5.55;;;;;;;7.74;53.93;101367.72;5009065;28;20057;-69
2022/04/19 00:38:22;;;;;;;6.88;4.97;;;;;;;7.74;54.04;101367.72;5016183;28;20848;-69
2022/04/19 00:40:49;;;;;;;7.82;5.32;;;;;;;7.68;54.13;101363.41;4996373;28;20043;-69
2022/04/19 00:43:21;;;;;;;7.70;5.10;;;;;;;7.57;54.34;101373.16;4999586;28;20520;-69
2022/04/19 00:45:48;;;;;;;7.57;5.28;;;;;;;7.43;54.49;101361.03;5012024;28;20046;-70
2022/04/19 00:48:15;;;;;;;8.55;5.55;;;;;;;7.34;54.88;101357.59;5014126;28;20508;-69
2022/04/19 00:50:43;;;;;;;9.35;5.15;;;;;;;7.24;54.94;101368.16;5005570;28;20519;-68
2022/04/19 00:53:11;;;;;;;8.43;5.47;;;;;;;7.18;55.21;101359.47;5000925;28;20109;-70
2022/04/19 00:55:42;;;;;;;9.30;5.68;;;;;;;7.18;55.43;101355.13;4994705;28;20045;-69
2022/04/19 00:58:11;;;;;;;8.70;6.10;;;;;;;7.19;55.43;101350.72;5009512;28;20042;-69
2022/04/19 01:00:39;;;;;;;9.68;5.78;;;;;;;7.21;55.36;101355.09;5004355;28;20058;-69
2022/04/19 01:03:10;;;;;;;8.18;5.85;;;;;;;7.24;55.29;101351.59;5001542;28;20041;-68
2022/04/19 01:05:38;;;;;;;9.32;5.75;;;;;;;7.23;55.28;101355.94;5006959;28;20568;-69
2022/04/19 01:08:10;;;;;;;8.77;5.43;;;;;;;7.22;55.30;101358.59;5009287;28;20047;-69
2022/04/19 01:10:39;;;;;;;9.80;5.93;;;;;;;7.22;55.47;101351.59;5001337;28;20057;-68
2022/04/19 01:13:17;;;;;;;8.15;6.13;;;;;;;7.23;55.73;101355.09;5000666;28;20050;-69
2022/04/19 01:15:51;;;;;;;9.18;5.85;;;;;;;7.23;55.85;101353.31;4998014;28;20525;-68
2022/04/19 01:18:20;;;;;;;9.15;6.28;;;;;;;7.19;55.75;101356.88;5011850;28;20038;-69
2022/04/19 01:20:49;;;;;;;9.35;5.32;;;;;;;7.13;56.18;101351.66;5008534;28;20596;-69
2022/04/19 01:23:19;;;;;;;8.25;5.97;;;;;;;7.07;55.86;101343.84;5006227;28;20061;-70
2022/04/19 01:25:48;;;;;;;9.70;5.80;;;;;;;7.08;56.15;101354.31;5006880;28;20078;-69
2022/04/19 01:28:18;;;;;;;9.98;5.88;;;;;;;7.13;56.13;101354.28;4996336;28;20053;-69
2022/04/19 01:30:54;;;;;;;9.20;5.65;;;;;;;7.20;55.95;101350.75;5006412;28;20043;-69
2022/04/19 01:33:24;;;;;;;8.00;5.57;;;;;;;7.23;56.02;101342.81;5007951;28;20086;-68
2022/04/19 01:35:53;;;;;;;13.35;6.15;;;;;;;7.24;55.84;101348.97;5020816;28;20125;-68
2022/04/19 01:38:22;;;;;;;8.38;5.93;;;;;;;7.21;55.53;101348.97;5002239;28;20078;-69
2022/04/19 01:40:50;;;;;;;7.57;5.78;;;;;;;7.18;55.37;101354.22;5011052;28;20042;-69
2022/04/19 01:43:35;;;;;;;9.43;5.45;;;;;;;7.10;55.09;101342.06;5002366;28;20050;-69
2022/04/19 01:46:03;;;;;;;8.93;5.80;;;;;;;7.06;55.16;101348.22;5009728;28;20239;-70
2022/04/19 01:48:31;;;;;;;8.40;5.82;;;;;;;7.04;55.74;101350.00;5023687;28;20129;-69
2022/04/19 01:50:58;;;;;;;8.65;5.97;;;;;;;6.99;56.00;101347.41;5010553;28;20061;-69
2022/04/19 01:53:27;;;;;;;7.95;5.60;;;;;;;6.97;56.42;101343.03;5011371;28;20039;-70
2022/04/19 01:55:55;;;;;;;10.68;6.03;;;;;;;6.90;56.40;101344.84;5011538;28;20097;-69
2022/04/19 01:58:45;;;;;;;9.75;5.82;;;;;;;6.80;56.45;101345.78;5016617;28;20432;-68
2022/04/19 02:01:15;;;;;;;9.18;5.82;;;;;;;6.73;56.94;101346.69;5010562;28;20477;-69
2022/04/19 02:03:45;;;;;;;8.27;6.10;;;;;;;6.71;57.46;101338.84;5010796;28;20045;-69
2022/04/19 02:06:17;;;;;;;8.90;5.93;;;;;;;6.68;57.62;101341.47;5010664;28;20452;-69
2022/04/19 02:08:45;;;;;;;7.63;5.72;;;;;;;6.61;57.84;101334.53;5008910;28;20066;-69
2022/04/19 02:11:24;;;;;;;8.38;6.10;;;;;;;6.53;57.63;101342.44;5011047;28;20075;-69
2022/04/19 02:14:23;;;;;;;8.80;6.00;;;;;;;6.48;58.09;101345.09;5014536;28;20073;-69
2022/04/19 02:16:52;;;;;;;10.52;6.22;;;;;;;6.45;57.81;101332.03;5009295;28;20051;-70
2022/04/19 02:19:20;;;;;;;9.35;6.93;;;;;;;6.43;58.06;101336.41;5008568;28;20137;-70
2022/04/19 02:21:49;;;;;;;11.20;6.95;;;;;;;6.40;58.21;101341.63;5010292;28;20054;-69
2022/04/19 02:24:16;;;;;;;10.27;6.68;;;;;;;6.38;58.49;101338.16;5011506;28;20044;-68
2022/04/19 02:26:43;;;;;;;9.25;6.82;;;;;;;6.38;58.63;101335.53;5006645;28;20046;-68
2022/04/19 02:29:13;;;;;;;11.38;7.53;;;;;;;6.41;58.84;101337.28;5008799;28;20050;-67
2022/04/19 02:31:45;;;;;;;;;;;;;;;6.42;58.77;101333.75;5000104;28;20424;-67
2022/04/19 02:34:18;;;;;;;11.43;7.15;;;;;;;6.42;58.56;101336.38;5010465;28;19967;-67
2022/04/19 02:36:46;;;;;;;9.23;6.65;;;;;;;6.41;58.59;101330.28;5008206;28;20061;-71
2022/04/19 02:39:14;;;;;;;11.63;7.18;;;;;;;6.41;58.57;101330.28;5009088;28;20038;-69
2022/04/19 02:41:41;;;;;;;11.35;7.45;;;;;;;6.41;58.69;101330.28;5004844;28;20101;-70
2022/04/19 02:44:10;;;;;;;8.93;6.68;;;;;;;6.42;58.89;101328.53;5005635;28;20050;-70
2022/04/19 02:46:40;;;;;;;13.50;7.47;;;;;;;6.43;59.04;101336.41;5006585;28;20129;-67
2022/04/19 02:49:09;;;;;;;10.80;7.43;;;;;;;6.43;58.95;101335.50;5005848;28;20078;-71
2022/04/19 02:51:37;;;;;;;19.27;7.93;;;;;;;6.43;58.99;101328.53;5008817;28;20046;-70
2022/04/19 02:54:04;;;;;;;10.38;7.32;;;;;;;6.41;59.03;101330.28;5012835;28;20568;-69
2022/04/19 02:56:31;;;;;;;9.80;7.00;;;;;;;6.38;59.15;101325.06;5000260;28;20053;-70
2022/04/19 02:58:59;;;;;;;9.93;7.47;;;;;;;6.32;59.04;101328.56;5006017;28;20048;-69
2022/04/19 03:01:27;;;;;;;12.40;7.70;;;;;;;6.26;59.15;101327.75;5012428;28;20047;-70
2022/04/19 03:03:55;;;;;;;10.65;7.13;;;;;;;6.20;59.30;101323.41;5026202;28;20042;-69
2022/04/19 03:06:22;;;;;;;11.50;7.65;;;;;;;6.20;59.44;101328.66;5008206;28;20102;-69
2022/04/19 03:08:49;;;;;;;12.15;7.32;;;;;;;6.18;59.63;101327.78;5003917;28;20054;-70
2022/04/19 03:11:17;;;;;;;12.32;8.07;;;;;;;6.17;59.77;101323.41;5011740;28;20046;-69
2022/04/19 03:13:44;;;;;;;15.88;8.65;;;;;;;6.16;59.88;101321.69;4999854;28;20047;-70
2022/04/19 03:16:14;;;;;;;13.95;8.48;;;;;;;6.15;59.93;101326.06;5002041;28;20394;-69
2022/04/19 03:18:43;;;;;;;14.52;8.80;;;;;;;6.13;60.20;101325.19;5018889;28;20559;-69
2022/04/19 03:21:13;;;;;;;15.88;8.70;;;;;;;6.11;60.40;101321.69;5006310;28;20125;-69
2022/04/19 03:29:14;;;;;;;12.73;8.68;;;;;;;6.06;60.54;101318.22;5021014;28;20053;-70
2022/04/19 03:31:41;;;;;;;12.65;7.88;;;;;;;6.08;60.49;101318.22;5000613;28;20042;-70
2022/04/19 03:34:11;;;;;;;12.80;7.60;;;;;;;6.14;60.16;101321.69;5005243;28;20435;-69
2022/04/19 03:36:41;;;;;;;12.75;7.13;;;;;;;6.20;59.68;101313.81;5000367;28;20047;-70
2022/04/19 03:39:08;;;;;;;11.65;7.38;;;;;;;6.29;59.25;101314.63;5004383;28;20093;-70
2022/04/19 03:41:36;;;;;;;11.63;7.15;;;;;;;6.33;58.92;101311.97;5015732;28;20509;-70
2022/04/19 03:44:06;;;;;;;11.10;6.97;;;;;;;6.38;58.76;101309.34;5008123;28;20073;-71
2022/04/19 03:47:07;;;;;;;11.63;7.25;;;;;;;6.42;58.55;101316.31;5008200;28;20051;-70
2022/04/19 03:49:20;;;;;;;10.20;7.10;;;;;;;6.44;58.45;101311.06;5021714;28;20047;-69
2022/04/19 03:51:47;;;;;;;12.20;7.10;;;;;;;6.42;58.36;101308.47;5003567;28;20035;-70
2022/04/19 03:54:14;;;;;;;11.50;7.40;;;;;;;6.44;58.45;101311.06;5009192;28;20834;-71
2022/04/19 03:56:42;;;;;;;12.07;7.22;;;;;;;6.41;58.45;101311.09;5007196;28;20042;-71
2022/04/19 03:59:10;;;;;;;10.32;6.95;;;;;;;6.39;58.42;101310.22;5009020;28;20133;-71
2022/04/19 04:01:38;;;;;;;11.32;6.80;;;;;;;6.36;58.44;101314.59;5000839;28;20094;-68
2022/04/19 04:04:07;;;;;;;11.45;7.38;;;;;;;6.34;58.45;101312.88;4996363;28;20046;-69
2022/04/19 04:06:35;;;;;;;11.68;7.55;;;;;;;6.32;58.51;101317.25;5025365;28;20065;-69
2022/04/19 04:09:04;;;;;;;15.18;7.78;;;;;;;6.28;58.33;101321.63;5002676;28;20104;-69
2022/04/19 04:11:32;;;;;;;14.02;7.70;;;;;;;6.21;58.37;101325.13;5012164;28;20042;-69
2022/04/19 04:14:11;;;;;;;13.35;7.60;;;;;;;6.15;58.46;101338.25;5012348;28;20666;-69
2022/04/19 04:16:40;;;;;;;13.25;7.65;;;;;;;6.09;58.50;101338.28;5011809;28;20042;-69
2022/04/19 04:19:07;;;;;;;11.60;7.72;;;;;;;6.06;58.78;101337.44;5025082;28;20034;-68
2022/04/19 04:21:34;;;;;;;13.15;7.82;;;;;;;6.05;58.67;101338.28;5021378;28;20043;-69
2022/04/19 04:24:02;;;;;;;12.05;7.68;;;;;;;6.04;59.00;101339.16;5010863;28;20051;-69
2022/04/19 04:26:35;;;;;;;11.00;7.65;;;;;;;6.05;59.28;101334.81;5012833;28;20092;-68
2022/04/19 04:29:03;;;;;;;15.30;8.55;;;;;;;6.06;59.34;101344.38;5011922;28;20583;-70
2022/04/19 04:31:31;;;;;;;13.65;8.20;;;;;;;6.06;59.63;101347.00;5025236;28;20042;-69
2022/04/19 04:33:59;;;;;;;14.45;8.10;;;;;;;6.05;59.59;101347.91;5021379;28;20050;-70
2022/04/19 04:36:27;;;;;;;14.07;8.00;;;;;;;6.05;59.79;101351.38;5008305;28;20035;-70
2022/04/19 04:38:54;;;;;;;14.15;8.13;;;;;;;6.07;59.92;101351.38;5022823;28;20049;-68
2022/04/19 04:41:31;;;;;;;13.65;8.35;;;;;;;6.09;59.91;101346.16;5005849;28;20050;-69
2022/04/19 04:43:58;;;;;;;15.18;8.13;;;;;;;6.10;59.94;101353.97;5005431;28;20125;-70
2022/04/19 04:51:57;;;;;;;12.45;7.95;;;;;;;6.65;58.84;101341.53;5027556;28;20058;-68
2022/04/19 04:54:24;;;;;;;14.52;8.57;;;;;;;7.56;56.93;101332.91;5007052;28;20047;-68
2022/04/19 04:56:52;;;;;;;14.45;8.82;;;;;;;8.49;54.48;101341.53;5009502;28;20122;-68
2022/04/19 04:59:20;;;;;;;17.88;9.80;;;;;;;9.04;52.83;101328.44;5015600;28;20101;-68
2022/04/19 05:01:47;;;;;;;13.48;8.05;;;;;;;9.56;54.02;101332.81;5012396;28;20046;-69
2022/04/19 05:04:15;;;;;;;14.40;7.88;;;;;;;10.29;52.56;101338.41;5010133;28;20060;-69
2022/04/19 05:06:43;;;;;;;12.15;7.47;;;;;;;10.99;51.81;101333.34;5011195;28;20556;-68
2022/04/19 05:09:10;;;;;;;12.18;7.85;;;;;;;11.47;49.38;101326.00;5010331;28;20105;-69
2022/04/19 05:11:37;;;;;;;12.23;8.00;;;;;;;11.78;48.51;101330.47;4999673;28;20068;-69
2022/04/19 05:14:04;;;;;;;11.60;8.13;;;;;;;12.33;46.84;101328.06;4995272;28;20066;-69
2022/04/19 05:16:31;;;;;;;13.77;8.07;;;;;;;12.85;43.88;101330.00;5025179;28;20038;-70
2022/04/19 05:18:59;;;;;;;12.68;8.48;;;;;;;13.22;42.76;101331.44;5009883;28;20594;-69
2022/04/19 05:21:26;;;;;;;11.77;7.57;;;;;;;13.56;41.10;101334.72;5006180;28;20035;-69
2022/04/19 05:23:54;;;;;;;12.73;8.48;;;;;;;13.85;40.80;101336.34;4999879;28;20051;-69
2022/04/19 05:26:28;;;;;;;13.95;9.32;;;;;;;14.16;40.19;101331.69;5005355;28;20042;-69
2022/04/19 05:28:56;;;;;;;10.32;7.85;;;;;;;14.45;39.34;101333.25;5007424;28;20050;-69
2022/04/19 05:31:24;;;;;;;10.15;7.97;;;;;;;14.69;38.75;101335.91;5010831;28;20070;-69
2022/04/19 05:33:53;;;;;;;12.35;8.45;;;;;;;14.88;38.12;101336.00;5017567;28;20149;-69
2022/04/19 05:36:20;;;;;;;11.50;8.70;;;;;;;14.95;37.71;101334.84;5004671;28;20142;-70
2022/04/19 05:38:52;;;;;;;11.82;8.73;;;;;;;14.23;37.88;101343.81;5012843;28;20939;-69
2022/04/19 05:41:21;;;;;;;13.98;8.38;;;;;;;12.92;39.98;101343.91;4997021;28;20069;-68
2022/04/19 05:43:50;;;;;;;12.77;7.78;;;;;;;11.99;41.71;101341.38;5017675;28;20050;-69
2022/04/19 05:46:20;;;;;;;15.00;8.50;;;;;;;11.32;43.58;101341.34;5014914;28;20066;-69
2022/04/19 05:48:49;;;;;;;12.48;8.45;;;;;;;10.87;44.60;101346.84;5020212;28;20074;-69
2022/04/19 05:51:16;;;;;;;14.10;8.30;;;;;;;10.59;45.61;101352.72;5020915;28;20046;-68
2022/04/19 05:53:46;;;;;;;14.25;8.02;;;;;;;10.37;46.07;101337.41;5033365;28;20074;-69
2022/04/19 05:56:13;;;;;;;12.35;8.30;;;;;;;10.24;46.71;101339.38;5007190;28;20038;-68
2022/04/19 05:58:40;;;;;;;13.88;8.38;;;;;;;10.16;47.30;101348.34;5002329;28;20054;-68
2022/04/19 06:01:07;;;;;;;17.10;8.57;;;;;;;10.13;47.45;101349.25;4992459;28;20051;-69
2022/04/19 06:06:24;;;;;;;14.63;8.63;;;;;;;10.16;47.73;101349.22;5011772;28;20050;-69
2022/04/19 06:08:53;;;;;;;17.58;7.95;;;;;;;10.21;47.85;101349.13;5011419;28;20050;-69
2022/04/19 06:11:21;;;;;;;12.63;8.13;;;;;;;10.30;47.69;101350.69;4992167;28;20049;-69
2022/04/19 06:13:48;;;;;;;12.13;7.97;;;;;;;10.37;47.43;101352.31;5007381;28;20039;-69
2022/04/19 06:16:16;;;;;;;14.65;8.05;;;;;;;10.47;47.35;101342.47;5007993;28;20043;-69
2022/04/19 06:18:48;;;;;;;13.55;7.88;;;;;;;10.54;47.24;101349.34;4999435;28;20397;-68
2022/04/19 06:21:21;;;;;;;15.25;8.73;;;;;;;10.64;47.17;101355.25;5011029;28;20046;-69
2022/04/19 06:23:48;;;;;;;12.35;7.72;;;;;;;10.77;47.10;101359.38;5027957;28;20073;-69
2022/04/19 06:26:18;;;;;;;11.65;7.95;;;;;;;10.93;46.92;101346.69;5013342;28;20492;-68
2022/04/19 06:28:47;;;;;;;12.88;8.30;;;;;;;11.10;46.96;101353.31;5011040;28;20046;-69
2022/04/19 06:31:17;;;;;;;12.38;8.27;;;;;;;11.25;46.45;101345.03;5000387;28;20114;-69
2022/04/19 06:34:03;;;;;;;11.77;7.60;;;;;;;11.41;46.26;101349.91;5009377;28;20065;-70
2022/04/19 06:36:55;;;;;;;14.95;8.23;;;;;;;11.56;46.06;101346.00;5009286;28;20043;-69
2022/04/19 06:39:27;;;;;;;12.20;7.88;;;;;;;11.73;45.55;101342.91;5007867;28;20061;-69
2022/04/19 06:41:57;;;;;;;14.23;8.32;;;;;;;11.91;45.72;101341.56;5007166;28;20073;-70
2022/04/19 06:44:27;;;;;;;14.07;7.80;;;;;;;12.11;45.25;101335.72;5011169;28;20038;-69
2022/04/19 06:47:07;;;;;;;13.75;8.45;;;;;;;12.30;44.78;101346.63;5010458;28;20062;-68
2022/04/19 06:49:35;;;;;;;14.25;8.05;;;;;;;12.50;44.31;101340.78;5010895;28;20489;-71
2022/04/19 06:52:06;;;;;;;11.73;7.70;;;;;;;12.63;43.69;101341.25;5009462;28;20058;-70
2022/04/19 06:54:33;;;;;;;11.88;7.28;;;;;;;12.77;43.44;101340.81;5026837;28;20046;-69
2022/04/19 06:57:02;;;;;;;12.57;8.00;;;;;;;12.91;42.98;101342.16;5027149;28;20428;-70
2022/04/19 06:59:29;;;;;;;13.77;7.38;;;;;;;13.08;42.70;101341.59;5022720;28;20121;-70
2022/04/19 07:01:57;;;;;;;14.88;8.43;;;;;;;13.25;42.63;101347.22;5007052;28;20070;-70
2022/04/19 07:04:47;;;;;;;11.65;7.40;;;;;;;13.40;41.83;101343.22;5015771;28;20483;-69
2022/04/19 07:07:16;;;;;;;14.38;6.95;;;;;;;13.57;41.16;101358.53;5025152;28;20038;-69
2022/04/19 07:09:47;;;;;;;12.73;7.25;;;;;;;13.69;40.91;101356.34;5009758;28;20055;-70
2022/04/19 07:12:14;;;;;;;13.55;6.80;;;;;;;13.81;40.75;101359.44;5026372;28;20049;-69
2022/04/19 07:14:51;;;;;;;13.07;7.68;;;;;;;13.94;40.43;101364.28;5019493;28;20113;-69
2022/04/19 07:17:40;;;;;;;13.27;7.25;;;;;;;14.03;39.78;101357.81;5010542;28;20105;-69
2022/04/19 07:28:35;;;;;;;13.82;6.78;;;;;;;14.51;39.97;101361.31;5008940;28;20132;-68
2022/04/19 07:31:05;;;;;;;11.23;6.85;;;;;;;14.68;39.72;101360.72;5009712;28;20093;-70
2022/04/19 07:33:38;;;;;;;14.40;6.90;;;;;;;14.82;39.36;101361.00;5005736;28;20086;-70
2022/04/19 07:36:06;;;;;;;11.77;6.57;;;;;;;14.93;38.71;101365.91;5006830;28;20043;-69
2022/04/19 07:38:34;;;;;;;10.50;6.18;;;;;;;15.00;38.13;101366.53;5006553;28;20047;-69
2022/04/19 07:41:07;;;;;;;12.63;7.15;;;;;;;15.03;38.17;101367.25;4991298;28;20050;-68
2022/04/19 07:43:38;;;;;;;10.73;6.50;;;;;;;15.08;38.24;101361.75;5009769;28;20524;-69
2022/04/19 07:46:05;;;;;;;12.30;6.40;;;;;;;15.13;37.82;101367.72;5010188;28;20045;-69
2022/04/19 07:48:33;;;;;;;11.77;6.60;;;;;;;15.28;38.06;101363.56;5018817;28;20035;-70
2022/04/19 07:51:01;;;;;;;13.85;6.90;;;;;;;15.42;38.39;101365.66;5013225;28;20035;-69
2022/04/19 07:53:28;;;;;;;16.00;5.97;;;;;;;15.54;36.80;101369.59;5029552;28;20038;-69
2022/04/19 07:55:57;;;;;;;10.63;5.75;;;;;;;15.64;36.83;101364.72;5013058;28;20508;-69
2022/04/19 07:58:26;;;;;;;10.48;5.80;;;;;;;15.71;36.55;101370.66;5029745;28;20050;-71
2022/04/19 08:00:53;;;;;;;11.25;6.13;;;;;;;15.68;36.23;101366.34;5005993;28;20961;-68
2022/04/19 08:03:20;;;;;;;11.05;5.90;;;;;;;15.68;36.58;101363.69;5003066;28;20390;-71
2022/04/19 08:05:48;;;;;;;10.18;5.90;;;;;;;15.73;36.31;101366.13;5013112;28;20041;-69
2022/04/19 08:08:18;;;;;;;9.75;5.50;;;;;;;15.80;36.36;101363.16;5013503;28;20046;-71
2022/04/19 08:10:47;;;;;;;10.20;5.95;;;;;;;15.93;36.83;101359.97;5012918;28;20102;-70
2022/04/19 08:13:15;;;;;;;12.35;6.00;;;;;;;16.03;36.77;101363.94;5013244;28;20121;-70
2022/04/19 08:15:43;;;;;;;9.23;5.82;;;;;;;16.07;35.94;101367.34;5012815;28;20047;-69
2022/04/19 08:18:13;;;;;;;10.70;5.22;;;;;;;16.03;36.02;101357.75;5011567;28;20047;-69
2022/04/19 08:20:45;;;;;;;8.67;5.37;;;;;;;16.04;36.82;101363.00;5006587;28;20156;-70
2022/04/19 08:23:13;;;;;;;8.45;5.55;;;;;;;16.12;36.02;101365.31;5013947;28;20050;-69
2022/04/19 08:25:43;;;;;;;9.15;5.55;;;;;;;16.12;36.38;101358.22;5013047;28;20057;-69
2022/04/19 08:28:12;;;;;;;8.80;5.05;;;;;;;16.25;36.29;101355.84;4996939;28;20035;-70
2022/04/19 08:30:39;;;;;;;8.88;4.88;;;;;;;16.39;35.76;101357.00;5012551;28;20047;-70
2022/04/19 08:33:10;;;;;;;9.65;5.45;;;;;;;16.44;35.49;101355.00;5025386;28;20058;-70
2022/04/19 08:35:37;;;;;;;8.38;5.00;;;;;;;16.44;35.72;101358.50;5012337;28;20121;-70
2022/04/19 08:38:04;;;;;;;10.25;5.57;;;;;;;16.51;36.11;101351.09;5014190;28;20043;-70
2022/04/19 08:40:33;;;;;;;23.02;8.00;;;;;;;16.54;36.42;101347.44;5001757;28;20038;-70
2022/04/19 08:43:04;;;;;;;9.63;5.38;;;;;;;16.66;35.82;101351.31;5001334;28;20049;-70
2022/04/19 08:45:31;;;;;;;10.77;6.00;;;;;;;16.73;35.72;101350.09;5013131;28;20049;-69
2022/04/19 08:48:00;;;;;;;10.98;6.03;;;;;;;16.84;36.32;101350.44;5012906;28;20054;-70
2022/04/19 08:50:29;;;;;;;9.13;5.55;;;;;;;17.00;35.37;101355.91;5013804;28;20057;-72
2022/04/19 08:58:29;;;;;;;9.20;4.78;;;;;;;17.02;33.97;101359.34;5012554;28;20046;-71
2022/04/19 09:00:57;;;;;;;8.80;5.55;;;;;;;17.03;35.33;101361.09;5010663;28;20042;-71
2022/04/19 09:03:24;;;;;;;10.48;5.50;;;;;;;17.14;34.96;101351.69;5008534;28;20041;-70
2022/04/19 09:05:53;;;;;;;9.65;5.35;;;;;;;17.27;35.39;101360.78;4992816;28;20050;-71
2022/04/19 09:08:20;;;;;;;8.60;4.95;;;;;;;17.41;35.76;101349.41;5009280;28;20416;-70
2022/04/19 09:10:50;;;;;;;8.18;4.47;;;;;;;17.52;34.37;101355.06;5013724;28;20136;-69
2022/04/19 09:13:23;;;;;;;4.95;3.30;;;;;;;17.43;32.14;101355.53;5014699;28;20053;-70
2022/04/19 09:15:54;;;;;;;7.20;4.10;;;;;;;17.42;32.05;101352.97;5013620;28;20073;-70
2022/04/19 09:18:29;;;;;;;7.25;3.90;;;;;;;17.54;32.02;101342.53;5013979;28;20110;-71
2022/04/19 09:21:02;;;;;;;6.13;3.25;;;;;;;17.66;31.52;101346.34;5013022;28;20046;-70
2022/04/19 09:23:34;;;;;;;6.97;3.70;;;;;;;17.72;31.92;101347.00;5010274;28;20042;-70
2022/04/19 09:26:06;;;;;;;6.00;3.50;;;;;;;17.74;32.31;101351.28;5002417;28;20267;-70
2022/04/19 09:28:38;;;;;;;11.00;4.18;;;;;;;17.80;31.98;101347.44;5011508;28;20134;-71
2022/04/19 09:31:13;;;;;;;9.90;4.10;;;;;;;17.77;32.18;101343.13;5013002;28;20125;-70
2022/04/19 09:33:40;;;;;;;6.47;4.00;;;;;;;17.85;31.79;101348.06;5011896;28;20062;-70
2022/04/19 09:36:07;;;;;;;6.93;4.10;;;;;;;17.86;31.71;101344.44;5012690;28;20108;-70
2022/04/19 09:38:49;;;;;;;9.18;4.32;;;;;;;17.91;31.99;101333.53;5012951;28;20085;-70
2022/04/19 09:41:30;;;;;;;8.55;4.47;;;;;;;17.95;32.04;101343.09;5012067;28;20074;-70
2022/04/19 09:44:10;;;;;;;9.35;3.97;;;;;;;18.07;32.42;101337.13;5012785;28;20073;-71
2022/04/19 09:46:38;;;;;;;7.57;4.70;;;;;;;18.18;32.63;101333.88;5011641;28;20046;-69
2022/04/19 09:49:07;;;;;;;9.52;4.53;;;;;;;18.35;32.16;101332.09;5012155;28;20055;-71
2022/04/19 09:51:36;;;;;;;12.35;4.25;;;;;;;18.46;32.13;101325.22;5012072;28;20038;-70
2022/04/19 09:54:04;;;;;;;7.25;3.35;;;;;;;18.46;30.95;101327.03;5012107;28;20196;-70
2022/04/19 09:56:37;;;;;;;6.43;3.35;;;;;;;18.54;31.14;101326.59;5012813;28;20074;-70
2022/04/19 09:59:20;;;;;;;7.32;3.83;;;;;;;18.62;30.79;101325.22;5010484;28;20046;-70
2022/04/19 10:10:08;;;;;;;5.68;3.65;;;;;;;19.04;29.13;101311.31;5012277;28;20046;-70
2022/04/19 10:12:36;;;;;;;6.47;3.58;;;;;;;18.97;29.90;101317.97;5012079;28;20420;-70
2022/04/19 10:15:06;;;;;;;8.98;3.80;;;;;;;18.96;30.04;101310.91;5012574;28;20409;-72
2022/04/19 10:17:36;;;;;;;8.13;3.83;;;;;;;19.00;29.93;101307.97;5012147;28;20054;-70
2022/04/19 10:20:05;;;;;;;9.18;4.10;;;;;;;19.00;29.42;101309.75;5012962;28;20042;-71
2022/04/19 10:22:32;;;;;;;6.20;3.55;;;;;;;19.00;29.73;101309.75;5011071;28;20517;-70
2022/04/19 10:25:02;;;;;;;7.88;3.50;;;;;;;18.91;28.93;101311.16;5012531;28;20484;-71
2022/04/19 10:27:32;;;;;;;7.32;3.58;;;;;;;18.82;29.40;101309.00;5012491;28;20604;-70
2022/04/19 10:30:01;;;;;;;7.47;3.60;;;;;;;18.77;29.41;101303.94;5011248;28;20058;-70
2022/04/19 10:32:33;;;;;;;11.02;3.95;;;;;;;18.76;30.39;101303.06;5012250;28;20054;-70
2022/04/19 10:35:04;;;;;;;9.23;4.28;;;;;;;18.84;30.53;101302.63;5012307;28;20049;-71
2022/04/19 10:37:32;;;;;;;10.32;4.10;;;;;;;18.92;30.88;101300.34;5025133;28;20058;-70
2022/04/19 10:39:59;;;;;;;6.72;3.65;;;;;;;19.03;29.74;101297.06;5012281;28;20046;-71
2022/04/19 10:42:36;;;;;;;7.35;3.70;;;;;;;19.16;29.67;101293.69;5012539;28;20121;-70
2022/04/19 10:45:12;;;;;;;8.30;3.53;;;;;;;19.24;29.22;101296.75;5012356;28;20047;-70
2022/04/19 10:47:51;;;;;;;5.25;3.15;;;;;;;19.46;29.26;101291.00;5011733;28;20046;-71
2022/04/19 10:50:44;;;;;;;6.82;3.63;;;;;;;19.50;28.78;101299.69;5019774;28;20062;-69
2022/04/19 10:53:13;;;;;;;7.60;3.55;;;;;;;19.44;28.85;101289.34;5004928;28;20053;-71
2022/04/19 10:55:53;;;;;;;6.65;3.63;;;;;;;19.43;29.73;101301.88;5011166;28;20049;-70
2022/04/19 10:58:40;;;;;;;7.53;4.10;;;;;;;19.50;28.46;101286.31;5005439;28;20840;-70
2022/04/19 11:01:31;;;;;;;8.50;3.72;;;;;;;19.46;28.67;101282.97;5011907;28;20046;-71
2022/04/19 11:03:59;;;;;;;7.97;3.80;;;;;;;19.39;28.76;101285.16;5011387;28;20039;-71
2022/04/19 11:06:35;;;;;;;5.85;3.38;;;;;;;19.38;29.53;101283.44;5011582;28;20043;-70
2022/04/19 11:09:29;;;;;;;10.32;3.88;;;;;;;19.57;29.24;101284.97;4992270;28;20482;-70
2022/04/19 11:12:12;;;;;;;7.43;3.47;;;;;;;19.61;27.88;101281.19;4991850;28;20039;-71
2022/04/19 11:14:40;;;;;;;6.22;2.90;;;;;;;19.51;27.75;101283.53;5008341;28;20049;-70
2022/04/19 11:17:28;;;;;;;6.00;3.75;;;;;;;19.42;29.37;101285.94;5012061;28;20082;-70
2022/04/19 11:20:17;;;;;;;7.95;4.40;;;;;;;19.57;28.46;101282.31;5015274;28;20045;-69
2022/04/19 11:22:47;;;;;;;10.18;3.78;;;;;;;19.70;29.71;101280.59;5013943;28;20042;-71
2022/04/19 11:25:34;;;;;;;7.60;3.78;;;;;;;19.90;29.00;101283.00;5014803;28;20521;-70
2022/04/19 11:28:01;;;;;;;8.55;4.05;;;;;;;19.96;28.09;101274.63;5015041;28;20049;-72
2022/04/19 11:30:29;;;;;;;6.80;4.43;;;;;;;20.01;27.96;101273.38;5014908;28;20158;-71
2022/04/19 11:32:59;;;;;;;7.45;3.45;;;;;;;20.13;28.11;101276.22;5013762;28;20070;-70
2022/04/19 11:35:28;;;;;;;7.13;4.13;;;;;;;20.10;27.78;101279.94;5014627;28;20527;-70
2022/04/19 11:37:56;;;;;;;7.22;4.07;;;;;;;20.17;28.04;101265.22;5014408;28;20039;-70
2022/04/19 11:48:50;;;;;;;5.60;3.03;;;;;;;20.58;26.48;101263.47;5014154;28;20488;-70
2022/04/19 11:51:21;;;;;;;7.78;3.63;;;;;;;20.52;26.47;101265.69;5013480;28;20046;-71
2022/04/19 11:53:50;;;;;;;8.07;4.40;;;;;;;20.48;27.04;101257.00;5014702;28;20101;-70
2022/04/19 11:56:17;;;;;;;9.85;3.88;;;;;;;20.50;27.58;101257.75;5014752;28;20042;-69
2022/04/19 11:58:52;;;;;;;6.93;3.67;;;;;;;20.52;26.65;101254.97;5014371;28;20046;-70
2022/04/19 12:01:20;;;;;;;7.25;3.72;;;;;;;20.55;27.35;101255.63;5014204;28;20042;-70
2022/04/19 12:03:48;;;;;;;9.52;3.78;;;;;;;20.64;26.00;101249.69;5014398;28;20133;-69
2022/04/19 12:06:18;;;;;;;7.53;3.92;;;;;;;20.69;26.49;101259.22;5012329;28;20035;-69
2022/04/19 12:08:53;;;;;;;12.32;4.28;;;;;;;20.76;26.18;101257.88;5014564;28;20046;-71
2022/04/19 12:11:23;;;;;;;;;;;;;;;20.75;26.16;101254.34;5013423;28;20469;-70
2022/04/19 12:13:50;;;;;;;7.90;4.20;;;;;;;20.74;26.35;101251.78;5014839;28;19929;-71
2022/04/19 12:16:39;;;;;;;7.28;4.07;;;;;;;20.79;26.80;101249.63;5014722;28;20038;-71
2022/04/19 12:19:09;;;;;;;9.15;4.22;;;;;;;20.82;26.99;101251.25;5014214;28;20054;-72
2022/04/19 12:21:46;;;;;;;9.95;4.70;;;;;;;20.88;27.21;101248.16;5012298;28;20042;-71
2022/04/19 12:24:20;;;;;;;7.97;4.68;;;;;;;21.04;27.04;101248.84;5004463;28;20053;-68